• Join FlightAware (Why Join?)
  • Login
  • US Flag 
09:59PM EDT


 

Airport Tracker/Info


-or-


 

Live Flight TrackerFlight Track Log ✈ ASQ5745 ✈ 13-Jun-2013 ✈ KDAY - KORD

Flight Track Log - Related Links

Times and Time Zones

All times are in EDT time to prevent confusion due to time zone crossing. See the ASQ5745 flight status page for this flight to view local times or setup timezone preferences in your user account.

Time Position Orientation Groundspeed Altitude Reporting Facility
EDT Latitude Longitude Course Direction KTS MPH feet Rate Location/Type
07:10PM 39.9111 -84.2161 323° Northwest 163 188 1,400  Level Indianapolis Center
07:11PM 39.9619 -84.2092 North 190 219 3,600 1,920 Climbing Indianapolis Center
07:12PM 40.0219 -84.2200 352° North 238 274 5,600 2,040 Climbing Indianapolis Center
07:14PM 40.1208 -84.4208 323° Northwest  Level FlightAware Approximate
07:14PM 40.0839 -84.2817 323° Northwest 241 277 8,300  Level Indianapolis Center
07:15PM 40.1752 -84.4752 323° Northwest  Level FlightAware Approximate
07:15PM 40.1389 -84.3469 318° Northwest 260 299 10,800  Level Indianapolis Center
07:16PM 40.2296 -84.5296 323° Northwest  Level FlightAware Approximate
07:16PM 40.1939 -84.4142 317° Northwest 265 305 13,200  Level Indianapolis Center
07:17PM 40.2608 -84.4944 318° Northwest 278 320 14,800 1,440 Climbing Indianapolis Center
07:18PM 40.3208 -84.5703 316° Northwest 294 338 16,200 1,260 Climbing Indianapolis Center
07:19PM 40.3889 -84.6433 321° Northwest 308 354 17,500 1,260 Climbing Indianapolis Center
07:20PM 40.4631 -84.7083 326° Northwest 316 364 18,900 1,200 Climbing Indianapolis Center
07:21PM 40.5367 -84.7781 324° Northwest 322 371 20,100 1,020 Climbing Indianapolis Center
07:22PM 40.6081 -84.8531 321° Northwest 334 384 21,100 1,080 Climbing Indianapolis Center
07:22PM 40.6261 -84.8911 302° West 335 386 21,700 600 Climbing Chicago Center
07:23PM 40.6747 -85.0058 299° West 338 389 22,000 120 Climbing Chicago Center
07:24PM 40.7242 -85.1222 299° West 355 409 22,000  Level Chicago Center
07:25PM 40.7758 -85.2442 299° West 372 428 22,000  Level Chicago Center
07:27PM 40.8381 -85.3950 299° West 388 447 22,000  Level Chicago Center
07:28PM 40.8900 -85.5211 299° West 390 449 22,000  Level Chicago Center
07:29PM 40.9436 -85.6472 299° West 391 450 22,000  Level Chicago Center
07:30PM 40.9942 -85.7758 298° West 393 452 22,000  Level Chicago Center
07:31PM 41.0478 -85.9042 299° West 396 456 22,000  Level Chicago Center
07:32PM 41.0983 -86.0322 298° West 394 453 22,000  Level Chicago Center
07:33PM 41.1503 -86.1592 299° West 392 451 22,000 -240 Level Chicago Center
07:34PM 41.2108 -86.3142 297° West 393 452 21,600 -480 Descending Chicago Center
07:35PM 41.2647 -86.4461 299° West 401 461 21,100 -480 Descending Chicago Center
07:36PM 41.3153 -86.5708 298° West 387 445 20,600 -480 Descending Chicago Center
07:37PM 41.3639 -86.6947 298° West 379 436 20,100 -540 Descending Chicago Center
07:38PM 41.4156 -86.8242 298° West 378 435 19,500 -1,440 Descending Chicago Center
07:39PM 41.4644 -86.9447 298° West 375 432 17,200 -2,400 Descending Chicago Center
07:40PM 41.5200 -87.0858 298° West 362 417 14,600 -2,280 Descending Chicago Center
07:41PM 41.5650 -87.2000 298° West 353 406 12,600 -1,920 Descending Chicago Center
07:42PM 41.6153 -87.2992 304° West 333 383 10,700 -1,260 Descending Chicago Center
07:43PM 41.6717 -87.3919 309° West 326 375 10,000 -360 Descending Chicago Center
07:44PM 41.7264 -87.4825 309° West 320 368 10,000 -720 Level Chicago Center
07:45PM 41.7817 -87.5753 309° West 265 305 8,600 -1,440 Descending Chicago Center
07:46PM 41.7964 -87.6722 282° West 281 323 7,100 -780 Descending Chicago Center
07:47PM 41.7961 -87.7708 270° West 272 313 7,000 -780 Descending Chicago Center
07:48PM 41.8008 -87.8667 274° West 265 305 5,500 -1,500 Descending Chicago Center